createdAt,value
2024-03-26T00:00:28.014Z,19.76
2024-03-26T00:01:28.347Z,19.68
2024-03-26T00:02:28.023Z,19.62
2024-03-26T00:03:28.025Z,19.69
2024-03-26T00:04:28.023Z,19.75
2024-03-26T00:05:28.027Z,19.71
2024-03-26T00:06:28.028Z,19.61
2024-03-26T00:07:28.053Z,19.75
2024-03-26T00:08:28.051Z,19.62
2024-03-26T00:09:28.033Z,19.53
2024-03-26T00:10:28.033Z,19.60
2024-03-26T00:11:28.346Z,19.55
2024-03-26T00:12:28.044Z,19.65
2024-03-26T00:13:28.033Z,19.80
2024-03-26T00:14:28.067Z,19.71
2024-03-26T00:15:28.041Z,19.70
2024-03-26T00:16:28.341Z,19.70
2024-03-26T00:17:28.063Z,19.63
2024-03-26T00:18:28.044Z,19.60
2024-03-26T00:19:28.049Z,19.60
2024-03-26T00:20:28.044Z,19.59
2024-03-26T00:21:28.357Z,19.65
2024-03-26T00:22:28.057Z,19.67
2024-03-26T00:23:28.055Z,19.63
2024-03-26T00:24:28.056Z,19.69
2024-03-26T00:25:28.043Z,19.55
2024-03-26T00:26:28.074Z,19.62
2024-03-26T00:27:28.043Z,19.53
2024-03-26T00:28:28.042Z,19.64
2024-03-26T00:29:28.044Z,19.52
2024-03-26T00:30:28.069Z,19.61
2024-03-26T00:31:28.350Z,19.61
2024-03-26T00:32:28.078Z,19.68
2024-03-26T00:33:28.061Z,19.67
2024-03-26T00:34:28.064Z,19.59
2024-03-26T00:35:28.087Z,19.66
2024-03-26T00:36:28.087Z,19.64
2024-03-26T00:37:28.069Z,19.63
2024-03-26T00:38:28.089Z,19.66
2024-03-26T00:39:28.068Z,19.68
2024-03-26T00:40:28.069Z,19.68
2024-03-26T00:41:28.356Z,19.69
2024-03-26T00:42:28.087Z,19.64
2024-03-26T00:43:28.089Z,19.74
2024-03-26T00:44:28.081Z,19.66
2024-03-26T00:45:28.098Z,19.65
2024-03-26T00:46:28.350Z,19.75
2024-03-26T00:47:28.085Z,19.68
2024-03-26T00:48:28.093Z,19.75
2024-03-26T00:49:28.102Z,19.73
2024-03-26T00:50:28.105Z,19.78
2024-03-26T00:51:28.085Z,19.79
2024-03-26T00:52:28.099Z,19.71
2024-03-26T00:53:28.087Z,19.78
2024-03-26T00:54:28.108Z,19.74
2024-03-26T00:55:28.111Z,19.83
2024-03-26T00:56:28.103Z,19.83
2024-03-26T00:57:28.092Z,19.82
2024-03-26T00:58:28.107Z,19.81
2024-03-26T00:59:28.152Z,19.87
2024-03-26T01:00:28.174Z,19.79
2024-03-26T01:01:28.215Z,19.84
2024-03-26T01:02:28.222Z,19.81
2024-03-26T01:03:28.224Z,19.92
2024-03-26T01:04:28.240Z,19.95
2024-03-26T01:05:28.283Z,19.94
2024-03-26T01:06:28.292Z,19.82
2024-03-26T01:07:28.340Z,19.86
2024-03-26T01:08:28.360Z,19.94
2024-03-26T01:09:28.402Z,19.96
2024-03-26T01:10:28.394Z,19.85
2024-03-26T01:11:28.883Z,19.91
2024-03-26T01:12:28.451Z,19.94
2024-03-26T01:13:28.510Z,19.96
2024-03-26T01:14:28.529Z,19.96
2024-03-26T01:15:28.542Z,19.94
2024-03-26T01:16:28.870Z,19.94
2024-03-26T01:17:28.658Z,20.00
2024-03-26T01:18:28.614Z,20.00
2024-03-26T01:19:28.655Z,20.00
2024-03-26T01:20:28.673Z,20.02
2024-03-26T01:21:28.708Z,20.03
2024-03-26T01:22:28.799Z,20.03
2024-03-26T01:23:28.747Z,20.05
2024-03-26T01:24:28.756Z,20.04
2024-03-26T01:25:28.764Z,20.02
2024-03-26T01:26:28.802Z,20.04
2024-03-26T01:27:28.810Z,20.08
2024-03-26T01:28:28.866Z,20.10
2024-03-26T01:29:28.871Z,20.06
2024-03-26T01:30:28.904Z,20.12
2024-03-26T01:31:29.394Z,20.13
2024-03-26T01:32:28.965Z,20.08
2024-03-26T01:33:28.963Z,20.08
2024-03-26T01:34:28.984Z,20.04
2024-03-26T01:35:29.013Z,20.07
2024-03-26T01:36:29.062Z,20.08
2024-03-26T01:37:29.094Z,20.12
2024-03-26T01:38:29.118Z,20.18
2024-03-26T01:39:29.143Z,20.17
2024-03-26T01:40:29.156Z,20.15
2024-03-26T01:41:29.153Z,20.20
2024-03-26T01:42:29.183Z,20.14
2024-03-26T01:43:29.233Z,20.12
2024-03-26T01:44:29.241Z,20.11
2024-03-26T01:45:29.283Z,20.16
2024-03-26T01:46:29.303Z,20.17
2024-03-26T01:47:29.290Z,20.17
2024-03-26T01:48:29.323Z,20.22
2024-03-26T01:49:29.379Z,20.24
2024-03-26T01:50:29.383Z,20.23
2024-03-26T01:51:29.430Z,20.26
2024-03-26T01:52:30.506Z,20.29
2024-03-26T01:53:29.470Z,20.34
2024-03-26T01:54:29.485Z,20.25
2024-03-26T01:55:29.503Z,20.29
2024-03-26T01:56:29.539Z,20.31
2024-03-26T01:57:29.544Z,20.31
2024-03-26T01:58:29.584Z,20.29
2024-03-26T01:59:29.602Z,20.31
2024-03-26T02:00:29.677Z,20.33
2024-03-26T02:01:29.886Z,20.33
2024-03-26T02:02:29.809Z,20.35
2024-03-26T02:03:29.792Z,20.36
2024-03-26T02:04:29.720Z,20.40
2024-03-26T02:05:29.811Z,20.37
2024-03-26T02:06:29.787Z,20.39
2024-03-26T02:07:29.793Z,20.43
2024-03-26T02:08:29.841Z,20.44
2024-03-26T02:09:29.889Z,20.43
2024-03-26T02:10:29.939Z,20.45
2024-03-26T02:11:29.949Z,20.50
2024-03-26T02:12:29.977Z,20.50
2024-03-26T02:13:29.989Z,20.44
2024-03-26T02:14:30.014Z,20.47
2024-03-26T02:15:30.025Z,20.46
2024-03-26T02:16:30.407Z,20.48
2024-03-26T02:17:30.090Z,20.47
2024-03-26T02:18:30.110Z,20.50
2024-03-26T02:19:30.165Z,20.47
2024-03-26T02:20:30.914Z,20.49
2024-03-26T02:21:30.203Z,20.52
2024-03-26T02:22:30.247Z,20.46
2024-03-26T02:23:30.247Z,20.48
2024-03-26T02:24:30.362Z,20.50
2024-03-26T02:25:30.325Z,20.46
2024-03-26T02:26:30.341Z,20.47
2024-03-26T02:27:30.374Z,20.50
2024-03-26T02:28:30.393Z,20.50
2024-03-26T02:29:30.411Z,20.45
2024-03-26T02:30:30.454Z,20.48
2024-03-26T02:31:30.906Z,20.47
2024-03-26T02:32:30.511Z,20.49
2024-03-26T02:33:30.535Z,20.52
2024-03-26T02:34:30.544Z,20.49
2024-03-26T02:35:30.573Z,20.54
2024-03-26T02:36:30.927Z,20.58
2024-03-26T02:37:30.638Z,20.57
2024-03-26T02:38:30.651Z,20.53
2024-03-26T02:39:30.670Z,20.53
2024-03-26T02:40:30.722Z,20.53
2024-03-26T02:41:30.740Z,20.53
2024-03-26T02:42:30.793Z,20.57
2024-03-26T02:43:30.806Z,20.58
2024-03-26T02:44:30.809Z,20.59
2024-03-26T02:45:30.889Z,20.55
2024-03-26T02:46:30.897Z,20.55
2024-03-26T02:47:30.951Z,20.55
2024-03-26T02:48:30.965Z,20.59
2024-03-26T02:49:31.029Z,20.59
2024-03-26T02:50:31.058Z,20.63
2024-03-26T02:51:31.432Z,20.60
2024-03-26T02:52:31.073Z,20.63
2024-03-26T02:53:31.249Z,20.60
2024-03-26T02:54:31.190Z,20.63
2024-03-26T02:55:31.207Z,20.67
2024-03-26T02:56:31.271Z,20.67
2024-03-26T02:57:31.309Z,20.64
2024-03-26T02:58:31.266Z,20.68
2024-03-26T02:59:31.331Z,20.76
2024-03-26T03:00:31.371Z,20.74
2024-03-26T03:01:31.376Z,20.67
2024-03-26T03:02:31.397Z,20.66
2024-03-26T03:03:31.387Z,20.63
2024-03-26T03:04:31.426Z,20.66
2024-03-26T03:05:31.470Z,20.65
2024-03-26T03:06:31.486Z,20.65
2024-03-26T03:07:31.511Z,20.64
2024-03-26T03:08:31.555Z,20.66
2024-03-26T03:09:31.585Z,20.62
2024-03-26T03:10:31.580Z,20.63
2024-03-26T03:11:31.605Z,20.65
2024-03-26T03:12:31.667Z,20.66
2024-03-26T03:13:31.676Z,20.63
2024-03-26T03:14:31.692Z,20.68
2024-03-26T03:15:31.702Z,20.66
2024-03-26T03:16:31.912Z,20.67
2024-03-26T03:17:31.771Z,20.68
2024-03-26T03:18:31.805Z,20.68
2024-03-26T03:19:31.832Z,20.70
2024-03-26T03:20:31.887Z,20.69
2024-03-26T03:21:31.920Z,20.68
2024-03-26T03:22:31.927Z,20.69
2024-03-26T03:23:31.965Z,20.72
2024-03-26T03:24:31.963Z,20.72
2024-03-26T03:25:31.998Z,20.73
2024-03-26T03:26:32.033Z,20.70
2024-03-26T03:27:32.049Z,20.73
2024-03-26T03:28:32.093Z,20.66
2024-03-26T03:29:32.106Z,20.65
2024-03-26T03:30:32.125Z,20.68
2024-03-26T03:31:32.439Z,20.73
2024-03-26T03:32:32.192Z,20.67
2024-03-26T03:33:32.218Z,20.71
2024-03-26T03:34:32.274Z,20.75
2024-03-26T03:35:32.299Z,20.72
2024-03-26T03:36:32.319Z,20.74
2024-03-26T03:37:32.337Z,20.70
2024-03-26T03:38:32.364Z,20.70
2024-03-26T03:39:32.393Z,20.68
2024-03-26T03:40:32.424Z,20.64
2024-03-26T03:41:32.925Z,20.65
2024-03-26T03:42:32.473Z,20.68
2024-03-26T03:43:32.493Z,20.69
2024-03-26T03:44:32.523Z,20.66
2024-03-26T03:45:32.529Z,20.66
2024-03-26T03:46:32.571Z,20.65
2024-03-26T03:47:32.580Z,20.72
2024-03-26T03:48:32.657Z,20.71
2024-03-26T03:49:32.689Z,20.69
2024-03-26T03:50:32.704Z,20.68
2024-03-26T03:51:32.718Z,20.70
2024-03-26T03:52:32.750Z,20.70
2024-03-26T03:53:32.788Z,20.70
2024-03-26T03:54:32.823Z,20.72
2024-03-26T03:55:32.834Z,20.74
2024-03-26T03:56:32.886Z,20.75
2024-03-26T03:57:32.879Z,20.75
2024-03-26T03:58:32.960Z,20.75
2024-03-26T03:59:32.968Z,20.73
2024-03-26T04:00:32.981Z,20.76
2024-03-26T04:01:33.004Z,20.76
2024-03-26T04:02:33.016Z,20.78
2024-03-26T04:03:33.067Z,20.76
2024-03-26T04:04:33.045Z,20.76
2024-03-26T04:05:33.089Z,20.76
2024-03-26T04:06:33.426Z,20.77
2024-03-26T04:07:33.129Z,20.74
2024-03-26T04:08:33.170Z,20.74
2024-03-26T04:09:33.199Z,20.69
2024-03-26T04:10:33.236Z,20.71
2024-03-26T04:11:33.253Z,20.72
2024-03-26T04:12:33.254Z,20.73
2024-03-26T04:13:33.306Z,20.66
2024-03-26T04:14:33.323Z,20.69
2024-03-26T04:15:33.354Z,20.69
2024-03-26T04:16:33.434Z,20.72
2024-03-26T04:17:33.418Z,20.74
2024-03-26T04:18:35.329Z,20.73
2024-03-26T04:19:33.441Z,20.72
2024-03-26T04:20:33.436Z,20.73
2024-03-26T04:21:33.432Z,20.72
2024-03-26T04:22:33.442Z,20.70
2024-03-26T04:23:33.447Z,20.67
2024-03-26T04:24:33.452Z,20.66
2024-03-26T04:25:33.454Z,20.64
2024-03-26T04:26:33.957Z,20.65
2024-03-26T04:27:33.428Z,20.64
2024-03-26T04:28:33.442Z,20.67
2024-03-26T04:29:33.442Z,20.70
2024-03-26T04:30:33.424Z,20.70
2024-03-26T04:31:33.470Z,20.69
2024-03-26T04:32:33.446Z,20.68
2024-03-26T04:33:40.883Z,20.71
2024-03-26T04:34:40.860Z,20.71
2024-03-26T04:35:40.859Z,20.72
2024-03-26T04:36:41.312Z,20.73
2024-03-26T04:37:40.852Z,20.73
2024-03-26T04:38:40.870Z,20.72
2024-03-26T04:39:40.839Z,20.74
2024-03-26T04:40:40.851Z,20.71
2024-03-26T04:41:40.853Z,20.71
2024-03-26T04:42:40.852Z,20.72
2024-03-26T04:43:40.864Z,20.79
2024-03-26T04:44:40.861Z,20.75
2024-03-26T04:45:40.867Z,20.72
2024-03-26T04:46:40.882Z,20.71
2024-03-26T04:47:40.856Z,20.72
2024-03-26T04:48:40.881Z,20.72
2024-03-26T04:49:40.856Z,20.69
2024-03-26T04:50:40.859Z,20.70
2024-03-26T04:51:40.874Z,20.74
2024-03-26T04:52:40.889Z,20.72
2024-03-26T04:53:40.896Z,20.72
2024-03-26T04:54:40.866Z,20.72
2024-03-26T04:55:40.864Z,20.76
2024-03-26T04:56:40.903Z,20.81
2024-03-26T04:57:40.875Z,20.76
2024-03-26T04:58:40.921Z,20.79
2024-03-26T04:59:40.878Z,20.76
2024-03-26T05:00:40.887Z,20.79
2024-03-26T05:01:40.879Z,20.79
2024-03-26T05:02:40.883Z,20.77
2024-03-26T05:03:40.888Z,20.82
2024-03-26T05:04:40.879Z,20.80
2024-03-26T05:05:40.914Z,20.79
2024-03-26T05:06:40.917Z,20.81
2024-03-26T05:07:40.895Z,20.84
2024-03-26T05:08:40.896Z,20.78
2024-03-26T05:09:41.000Z,20.83
2024-03-26T05:10:40.900Z,20.80
2024-03-26T05:11:40.906Z,20.81
2024-03-26T05:12:40.917Z,20.84
2024-03-26T05:13:40.895Z,20.78
2024-03-26T05:14:40.927Z,20.82
2024-03-26T05:15:40.899Z,20.77
2024-03-26T05:16:40.907Z,20.76
2024-03-26T05:17:40.886Z,20.77
2024-03-26T05:18:40.895Z,20.79
2024-03-26T05:19:40.904Z,20.76
2024-03-26T05:20:40.911Z,20.78
2024-03-26T05:21:40.903Z,20.79
2024-03-26T05:22:40.909Z,20.78
2024-03-26T05:23:40.886Z,20.80
2024-03-26T05:24:40.921Z,20.79
2024-03-26T05:25:40.900Z,20.80
2024-03-26T05:26:40.910Z,20.84
2024-03-26T05:27:40.925Z,20.86
2024-03-26T05:28:40.923Z,20.85
2024-03-26T05:29:40.898Z,20.85
2024-03-26T05:30:40.913Z,20.84
2024-03-26T05:31:40.942Z,20.85
2024-03-26T05:32:40.899Z,20.86
2024-03-26T05:33:40.930Z,20.90
2024-03-26T05:34:40.962Z,20.89
2024-03-26T05:35:40.968Z,20.89
2024-03-26T05:36:41.346Z,20.87
2024-03-26T05:37:41.014Z,20.88
2024-03-26T05:38:41.039Z,20.87
2024-03-26T05:39:41.112Z,20.88
2024-03-26T05:40:41.067Z,20.86
2024-03-26T05:41:41.141Z,20.84
2024-03-26T05:42:41.172Z,20.81
2024-03-26T05:43:41.178Z,20.83
2024-03-26T05:44:41.182Z,20.84
2024-03-26T05:45:41.211Z,20.91
2024-03-26T05:46:41.263Z,20.91
2024-03-26T05:47:41.263Z,20.92
2024-03-26T05:48:41.303Z,20.93
2024-03-26T05:49:41.316Z,20.94
2024-03-26T05:50:41.406Z,20.93
2024-03-26T05:51:41.917Z,20.95
2024-03-26T05:52:41.412Z,20.95
2024-03-26T05:53:41.453Z,20.96
2024-03-26T05:54:41.483Z,20.97
2024-03-26T05:55:41.508Z,20.96
2024-03-26T05:56:41.542Z,20.93
2024-03-26T05:57:41.581Z,20.95
2024-03-26T05:58:41.580Z,20.97
2024-03-26T05:59:41.603Z,21.01
2024-03-26T06:00:41.654Z,20.96
2024-03-26T06:01:41.669Z,20.95
2024-03-26T06:02:41.689Z,20.97
2024-03-26T06:03:41.715Z,20.95
2024-03-26T06:04:41.754Z,20.96
2024-03-26T06:05:41.770Z,20.97
2024-03-26T06:06:41.812Z,20.97
2024-03-26T06:07:41.824Z,20.96
2024-03-26T06:08:41.868Z,20.97
2024-03-26T06:09:41.880Z,20.96
2024-03-26T06:10:41.897Z,20.97
2024-03-26T06:11:41.951Z,20.96
2024-03-26T06:12:41.948Z,20.95
2024-03-26T06:13:41.960Z,20.93
2024-03-26T06:14:42.009Z,20.97
2024-03-26T06:15:42.016Z,20.96
2024-03-26T06:16:42.071Z,20.98
2024-03-26T06:17:42.082Z,20.99
2024-03-26T06:18:42.097Z,20.97
2024-03-26T06:19:42.154Z,20.98
2024-03-26T06:20:42.205Z,20.98
2024-03-26T06:21:42.212Z,20.96
2024-03-26T06:22:42.301Z,20.95
2024-03-26T06:23:42.265Z,20.96
2024-03-26T06:24:42.308Z,20.96
2024-03-26T06:25:42.354Z,20.96
2024-03-26T06:26:42.864Z,20.97
2024-03-26T06:27:42.356Z,21.03
2024-03-26T06:28:42.404Z,21.00
2024-03-26T06:29:42.409Z,21.00
2024-03-26T06:30:42.439Z,20.98
2024-03-26T06:31:42.494Z,20.98
2024-03-26T06:32:42.493Z,20.96
2024-03-26T06:33:42.560Z,20.96
2024-03-26T06:34:42.513Z,20.95
2024-03-26T06:35:42.559Z,20.97
2024-03-26T06:36:42.864Z,20.97
2024-03-26T06:37:42.630Z,21.01
2024-03-26T06:38:42.646Z,20.97
2024-03-26T06:39:42.647Z,21.00
2024-03-26T06:40:42.688Z,21.00
2024-03-26T06:41:42.719Z,21.02
2024-03-26T06:42:42.739Z,20.97
2024-03-26T06:43:42.761Z,20.92
2024-03-26T06:44:42.789Z,20.91
2024-03-26T06:45:42.788Z,20.89
2024-03-26T06:46:42.821Z,20.91
2024-03-26T06:47:42.868Z,20.94
2024-03-26T06:48:42.881Z,20.87
2024-03-26T06:49:42.877Z,20.91
2024-03-26T06:50:42.901Z,20.94
2024-03-26T06:51:43.135Z,20.93
2024-03-26T06:52:42.968Z,20.96
2024-03-26T06:53:42.998Z,20.93
2024-03-26T06:54:43.017Z,20.94
2024-03-26T06:55:43.075Z,20.90
2024-03-26T06:56:43.351Z,20.94
2024-03-26T06:57:43.092Z,20.92
2024-03-26T06:58:43.137Z,20.96
2024-03-26T06:59:43.156Z,20.94
2024-03-26T07:00:43.182Z,20.95
2024-03-26T07:01:43.208Z,20.94
2024-03-26T07:02:43.238Z,20.96
2024-03-26T07:03:43.266Z,20.97
2024-03-26T07:04:43.277Z,20.92
2024-03-26T07:05:43.307Z,20.93
2024-03-26T07:06:43.362Z,20.95
2024-03-26T07:07:43.358Z,20.90
2024-03-26T07:08:43.422Z,20.95
2024-03-26T07:09:43.410Z,20.91
2024-03-26T07:10:43.433Z,20.93
2024-03-26T07:11:43.445Z,20.97
2024-03-26T07:12:43.470Z,21.03
2024-03-26T07:13:43.474Z,20.99
2024-03-26T07:14:44.349Z,20.98
2024-03-26T07:15:43.536Z,20.88
2024-03-26T07:16:43.570Z,20.88
2024-03-26T07:17:43.578Z,20.90
2024-03-26T07:18:46.557Z,20.82
2024-03-26T07:19:43.605Z,20.76
2024-03-26T07:20:43.588Z,20.80
2024-03-26T07:21:43.621Z,20.72
2024-03-26T07:22:43.609Z,20.71
2024-03-26T07:23:43.593Z,20.72
2024-03-26T07:24:43.616Z,20.72
2024-03-26T07:25:43.626Z,20.73
2024-03-26T07:26:43.898Z,20.71
2024-03-26T07:27:43.602Z,20.74
2024-03-26T07:28:43.615Z,20.73
2024-03-26T07:29:43.613Z,20.73
2024-03-26T07:30:43.636Z,20.70
2024-03-26T07:31:43.617Z,20.72
2024-03-26T07:32:43.600Z,20.67
2024-03-26T07:33:43.620Z,20.64
2024-03-26T07:34:43.605Z,20.58
2024-03-26T07:35:43.624Z,20.61
2024-03-26T07:36:43.622Z,20.60
2024-03-26T07:37:43.614Z,20.60
2024-03-26T07:38:43.604Z,20.56
2024-03-26T07:39:43.657Z,20.57
2024-03-26T07:40:43.691Z,20.57
2024-03-26T07:41:43.626Z,20.56
2024-03-26T07:42:43.611Z,20.53
2024-03-26T07:43:43.636Z,20.52
2024-03-26T07:44:43.622Z,20.50
2024-03-26T07:45:43.647Z,20.52
2024-03-26T07:46:43.639Z,20.47
2024-03-26T07:47:43.696Z,20.48
2024-03-26T07:48:43.604Z,20.46
2024-03-26T07:49:43.668Z,20.44
2024-03-26T07:50:43.690Z,20.34
2024-03-26T07:51:43.656Z,20.42
2024-03-26T07:52:43.614Z,20.43
2024-03-26T07:53:43.622Z,20.34
2024-03-26T07:54:43.629Z,20.25
2024-03-26T07:55:43.652Z,20.33
2024-03-26T07:56:43.663Z,20.24
2024-03-26T07:57:43.630Z,20.22
2024-03-26T07:58:43.647Z,20.17
2024-03-26T07:59:43.761Z,20.24
2024-03-26T08:00:43.643Z,20.18
2024-03-26T08:01:43.649Z,20.11
2024-03-26T08:02:43.633Z,20.11
2024-03-26T08:03:43.639Z,20.11
2024-03-26T08:04:43.645Z,20.06
2024-03-26T08:05:43.654Z,20.06
2024-03-26T08:06:43.682Z,20.05
2024-03-26T08:07:43.643Z,19.97
2024-03-26T08:08:43.657Z,19.99
2024-03-26T08:09:43.721Z,19.98
2024-03-26T08:10:44.505Z,19.97
2024-03-26T08:11:43.900Z,19.96
2024-03-26T08:12:43.662Z,20.02
2024-03-26T08:13:43.660Z,19.95
2024-03-26T08:14:43.651Z,19.99
2024-03-26T08:15:43.672Z,19.92
2024-03-26T08:16:43.734Z,19.95
2024-03-26T08:17:43.685Z,19.92
2024-03-26T08:18:43.652Z,19.85
2024-03-26T08:19:43.661Z,19.90
2024-03-26T08:20:43.673Z,19.86
2024-03-26T08:21:43.665Z,19.83
2024-03-26T08:22:43.653Z,19.87
2024-03-26T08:23:43.675Z,19.84
2024-03-26T08:24:43.684Z,19.83
2024-03-26T08:25:43.669Z,19.72
2024-03-26T08:26:43.670Z,19.83
2024-03-26T08:27:43.673Z,19.78
2024-03-26T08:28:43.717Z,19.71
2024-03-26T08:29:43.667Z,19.76
2024-03-26T08:30:43.743Z,19.68
2024-03-26T08:31:43.917Z,19.74
2024-03-26T08:32:43.814Z,19.71
2024-03-26T08:33:43.678Z,19.73
2024-03-26T08:34:43.702Z,19.68
2024-03-26T08:35:43.749Z,19.65
2024-03-26T08:36:43.880Z,19.58
2024-03-26T08:37:43.719Z,19.58
2024-03-26T08:38:43.719Z,19.63
2024-03-26T08:39:43.708Z,19.61
2024-03-26T08:40:43.698Z,19.60
2024-03-26T08:41:43.719Z,19.53
2024-03-26T08:42:43.718Z,19.53
2024-03-26T08:43:43.731Z,19.50
2024-03-26T08:44:43.701Z,19.49
2024-03-26T08:45:43.704Z,19.52
2024-03-26T08:46:43.899Z,19.50
2024-03-26T08:47:43.717Z,19.49
2024-03-26T08:48:43.714Z,19.52
2024-03-26T08:49:43.709Z,19.52
2024-03-26T08:50:43.717Z,19.42
2024-03-26T08:51:43.733Z,19.43
2024-03-26T08:52:43.924Z,19.43
2024-03-26T08:53:43.733Z,19.48
2024-03-26T08:54:43.731Z,19.42
2024-03-26T08:55:43.756Z,19.44
2024-03-26T08:56:43.791Z,19.39
2024-03-26T08:57:43.786Z,19.39
2024-03-26T08:58:43.797Z,19.37
2024-03-26T08:59:43.833Z,19.33
2024-03-26T09:00:43.952Z,19.34
2024-03-26T09:01:44.587Z,19.32
2024-03-26T09:02:44.415Z,19.31
2024-03-26T09:03:43.927Z,19.31
2024-03-26T09:04:43.943Z,19.35
2024-03-26T09:05:43.976Z,19.34
2024-03-26T09:06:43.982Z,19.27
2024-03-26T09:07:44.423Z,19.26
2024-03-26T09:08:44.035Z,19.28
2024-03-26T09:09:44.036Z,19.28
2024-03-26T09:10:44.092Z,19.23
2024-03-26T09:11:44.094Z,19.30
2024-03-26T09:12:44.430Z,19.18
2024-03-26T09:13:44.186Z,19.25
2024-03-26T09:14:44.186Z,19.28
2024-03-26T09:15:44.228Z,19.25
2024-03-26T09:16:44.234Z,19.23
2024-03-26T09:17:44.261Z,19.22
2024-03-26T09:18:44.470Z,19.20
2024-03-26T09:19:44.336Z,19.16
2024-03-26T09:20:44.369Z,19.24
2024-03-26T09:21:44.390Z,19.21
2024-03-26T09:22:44.406Z,19.24
2024-03-26T09:23:44.408Z,19.24
2024-03-26T09:24:50.498Z,19.23
2024-03-26T09:25:45.444Z,19.25
2024-03-26T09:26:44.432Z,19.26
2024-03-26T09:27:44.428Z,19.27
2024-03-26T09:28:44.456Z,19.27
2024-03-26T09:29:44.457Z,19.23
2024-03-26T09:30:44.460Z,19.24
2024-03-26T09:31:44.541Z,19.21
2024-03-26T09:32:44.922Z,19.23
2024-03-26T09:33:44.459Z,19.25
2024-03-26T09:34:44.464Z,19.21
2024-03-26T09:35:45.397Z,19.26
2024-03-26T09:36:44.451Z,19.26
2024-03-26T09:37:44.443Z,19.28
2024-03-26T09:38:48.666Z,19.25
2024-03-26T09:39:46.423Z,19.20
2024-03-26T09:40:44.453Z,19.20
2024-03-26T09:41:44.463Z,19.21
2024-03-26T09:42:44.565Z,19.19
2024-03-26T09:43:44.485Z,19.12
2024-03-26T09:44:49.745Z,19.14
2024-03-26T09:45:45.478Z,19.17
2024-03-26T09:46:44.459Z,19.15
2024-03-26T09:47:44.489Z,19.06
2024-03-26T09:48:44.474Z,19.13
2024-03-26T09:49:44.482Z,19.10
2024-03-26T09:50:44.463Z,19.14
2024-03-26T09:51:44.466Z,19.15
2024-03-26T09:52:44.533Z,19.15
2024-03-26T09:53:44.514Z,19.12
2024-03-26T09:54:44.468Z,19.13
2024-03-26T09:55:44.484Z,19.10
2024-03-26T09:56:44.479Z,19.10
2024-03-26T09:57:44.473Z,19.14
2024-03-26T09:58:44.488Z,19.09
2024-03-26T09:59:44.506Z,19.11
2024-03-26T10:00:44.510Z,19.09
2024-03-26T10:01:44.498Z,19.16
2024-03-26T10:02:44.513Z,19.12
2024-03-26T10:03:44.476Z,19.18
2024-03-26T10:04:44.485Z,19.16
2024-03-26T10:05:44.502Z,19.14
2024-03-26T10:06:44.465Z,19.12
2024-03-26T10:07:44.506Z,19.11
2024-03-26T10:08:44.512Z,19.19
2024-03-26T10:09:44.492Z,19.15
2024-03-26T10:10:44.486Z,19.07
2024-03-26T10:11:44.500Z,19.14
2024-03-26T10:12:44.534Z,19.11
2024-03-26T10:13:44.550Z,19.12
2024-03-26T10:14:44.567Z,19.05
2024-03-26T10:15:44.567Z,19.08
2024-03-26T10:16:44.606Z,19.10
2024-03-26T10:17:44.673Z,19.12
2024-03-26T10:18:44.649Z,19.18
2024-03-26T10:19:44.653Z,19.17
2024-03-26T10:20:44.660Z,19.22
2024-03-26T10:21:44.704Z,19.19
2024-03-26T10:22:44.949Z,19.20
2024-03-26T10:23:44.753Z,19.17
2024-03-26T10:24:44.770Z,19.15
2024-03-26T10:25:44.774Z,19.02
2024-03-26T10:26:44.787Z,19.06
2024-03-26T10:27:44.832Z,19.09
2024-03-26T10:28:44.862Z,19.10
2024-03-26T10:29:44.868Z,19.12
2024-03-26T10:30:44.895Z,19.12
2024-03-26T10:31:44.914Z,19.16
2024-03-26T10:32:44.991Z,19.17
2024-03-26T10:33:44.966Z,19.11
2024-03-26T10:34:45.001Z,19.12
2024-03-26T10:35:45.027Z,19.15
2024-03-26T10:36:45.022Z,19.14
2024-03-26T10:37:45.068Z,19.03
2024-03-26T10:38:54.093Z,19.15
2024-03-26T10:39:46.099Z,19.09
2024-03-26T10:40:45.088Z,19.20
2024-03-26T10:41:45.095Z,19.18
2024-03-26T10:42:45.477Z,19.20
2024-03-26T10:43:45.111Z,19.19
2024-03-26T10:44:45.082Z,19.19
2024-03-26T10:45:59.932Z,19.14
2024-03-26T10:46:46.117Z,19.22
2024-03-26T10:47:45.133Z,19.19
2024-03-26T10:48:54.249Z,19.19
2024-03-26T10:49:46.133Z,19.21
2024-03-26T10:50:45.126Z,19.22
2024-03-26T10:51:45.118Z,19.15
2024-03-26T10:52:45.632Z,19.23
2024-03-26T10:53:45.141Z,19.21
2024-03-26T10:54:45.143Z,19.24
2024-03-26T10:55:45.134Z,19.21
2024-03-26T10:56:45.162Z,19.22
2024-03-26T10:57:45.170Z,19.17
2024-03-26T10:58:45.140Z,19.23
2024-03-26T10:59:45.140Z,19.13
2024-03-26T11:00:45.215Z,19.11
2024-03-26T11:01:45.140Z,19.21
2024-03-26T11:02:45.144Z,19.21
2024-03-26T11:03:45.161Z,19.20
2024-03-26T11:04:45.156Z,19.20
2024-03-26T11:05:45.168Z,19.21
2024-03-26T11:06:45.187Z,19.23
2024-03-26T11:07:45.144Z,19.21
2024-03-26T11:08:45.145Z,19.14
2024-03-26T11:09:45.155Z,19.21
2024-03-26T11:10:45.183Z,19.21
2024-03-26T11:11:45.172Z,19.18
2024-03-26T11:12:45.170Z,19.22
2024-03-26T11:13:45.175Z,19.21
2024-03-26T11:14:45.182Z,19.17
2024-03-26T11:15:45.218Z,19.18
2024-03-26T11:16:45.203Z,19.26
2024-03-26T11:17:45.236Z,19.20
2024-03-26T11:18:45.236Z,19.26
2024-03-26T11:19:45.260Z,19.24
2024-03-26T11:20:45.337Z,19.28
2024-03-26T11:21:46.978Z,19.28
2024-03-26T11:22:45.357Z,19.27
2024-03-26T11:23:45.390Z,19.23
2024-03-26T11:24:45.414Z,19.25
2024-03-26T11:25:45.437Z,19.26
2024-03-26T11:26:45.436Z,19.26
2024-03-26T11:27:45.490Z,19.32
2024-03-26T11:28:45.483Z,19.24
2024-03-26T11:29:45.507Z,19.32
2024-03-26T11:30:45.540Z,19.28
2024-03-26T11:31:45.540Z,19.22
2024-03-26T11:32:45.596Z,19.17
2024-03-26T11:33:45.632Z,19.24
2024-03-26T11:34:45.643Z,19.13
2024-03-26T11:35:45.636Z,19.28
2024-03-26T11:36:45.683Z,19.28
2024-03-26T11:37:45.734Z,19.29
2024-03-26T11:38:45.734Z,19.26
2024-03-26T11:39:45.744Z,19.27
2024-03-26T11:40:45.775Z,19.28
2024-03-26T11:41:45.810Z,19.27
2024-03-26T11:42:45.837Z,19.27
2024-03-26T11:43:45.831Z,19.21
2024-03-26T11:44:45.882Z,19.25
2024-03-26T11:45:45.875Z,19.22
2024-03-26T11:46:45.902Z,19.29
2024-03-26T11:47:45.933Z,19.28
2024-03-26T11:48:45.981Z,19.29
2024-03-26T11:49:45.999Z,19.29
2024-03-26T11:50:46.023Z,19.28
2024-03-26T11:51:46.089Z,19.31
2024-03-26T11:52:46.092Z,19.24
2024-03-26T11:53:46.113Z,19.29
2024-03-26T11:54:46.142Z,19.32
2024-03-26T11:55:46.198Z,19.31
2024-03-26T11:56:46.236Z,19.30
2024-03-26T11:57:46.509Z,19.28
2024-03-26T11:58:46.277Z,19.22
2024-03-26T11:59:46.320Z,19.26
2024-03-26T12:00:46.341Z,19.16
2024-03-26T12:01:46.375Z,19.29
2024-03-26T12:02:46.386Z,19.33
2024-03-26T12:03:46.418Z,19.18
2024-03-26T12:04:46.411Z,19.28
2024-03-26T12:05:46.468Z,19.31
2024-03-26T12:06:46.533Z,19.35
2024-03-26T12:07:47.006Z,19.30
2024-03-26T12:08:46.557Z,19.34
2024-03-26T12:09:46.552Z,19.29
2024-03-26T12:10:46.602Z,19.31
2024-03-26T12:11:46.606Z,19.31
2024-03-26T12:12:46.659Z,19.27
2024-03-26T12:13:46.721Z,19.31
2024-03-26T12:14:46.728Z,19.32
2024-03-26T12:15:46.738Z,19.34
2024-03-26T12:16:46.748Z,19.33
2024-03-26T12:17:46.794Z,19.25
2024-03-26T12:18:46.800Z,19.33
2024-03-26T12:19:46.815Z,19.30
2024-03-26T12:20:46.875Z,19.35
2024-03-26T12:21:46.840Z,19.33
2024-03-26T12:22:47.015Z,19.38
2024-03-26T12:23:46.907Z,19.37
2024-03-26T12:24:46.968Z,19.38
2024-03-26T12:25:46.946Z,19.33
2024-03-26T12:26:46.991Z,19.29
2024-03-26T12:27:47.000Z,19.38
2024-03-26T12:28:47.008Z,19.39
2024-03-26T12:29:47.026Z,19.36
2024-03-26T12:30:47.052Z,19.35
2024-03-26T12:31:47.100Z,19.33
2024-03-26T12:32:47.132Z,19.36
2024-03-26T12:33:47.904Z,19.39
2024-03-26T12:34:47.281Z,19.37
2024-03-26T12:35:47.286Z,19.42
2024-03-26T12:36:47.272Z,19.38
2024-03-26T12:37:47.495Z,19.42
2024-03-26T12:38:47.285Z,19.39
2024-03-26T12:39:47.290Z,19.42
2024-03-26T12:40:47.304Z,19.37
2024-03-26T12:41:47.423Z,19.44
2024-03-26T12:42:47.364Z,19.40
2024-03-26T12:43:47.393Z,19.41
2024-03-26T12:44:47.452Z,19.41
2024-03-26T12:45:47.418Z,19.39
2024-03-26T12:46:47.403Z,19.41
2024-03-26T12:47:47.446Z,19.42
2024-03-26T12:48:47.465Z,19.43
2024-03-26T12:49:47.490Z,19.42
2024-03-26T12:50:47.502Z,19.42
2024-03-26T12:51:47.515Z,19.44
2024-03-26T12:52:47.994Z,19.46